Terminal Aerodrome Forecast
Issued by NWS

Home | Current Version | Previous Version | Graphics & Text | Print | Product List | Glossary On
Versions: 1 2 3 4 5 6 7 8 9 10 11 12 13
739
FTUS43 KOAX 030540
TAFCDR
TAF
KCDR 030540Z 0306/0406 33005KT 5SM BR SCT007 OVC015
      TEMPO 0306/0309 2SM -SN BR BKN007
     FM030900 28006KT 4SM BR OVC015
     FM031600 29014KT P6SM SCT025 BKN050
     FM032200 29010KT P6SM FEW100=

USA.gov is the U.S. government's official web portal to all federal, state and local government web resources and services.